Time;durP1;ratioP1;P1;durP2;ratioP2;P2;SDS_P1;SDS_P2;PMS_P1;PMS_P2;Temp;Humidity;BMP_temperature;BMP_pressure;BME280_temperature;BME280_humidity;BME280_pressure;Samples;Min_cycle;Max_cycle;Signal;HPM_P1;HPM_P2
2021/12/16 00:09:10;;;;;;;34.72;25.00;;;8.10;99.90;;;;;;4994013;28;20380;-89
2021/12/16 00:20:11;;;;;;;33.38;24.92;;;8.20;99.90;;;;;;5034259;28;20036;-88
2021/12/16 00:33:41;;;;;;;36.28;25.80;;;8.20;99.90;;;;;;5060977;28;21740;-90
2021/12/16 00:36:08;;;;;;;35.40;24.30;;;8.20;99.90;;;;;;5057253;28;20248;-88
2021/12/16 00:38:36;;;;;;;37.83;26.98;;;8.20;99.90;;;;;;5063700;28;20055;-88
2021/12/16 00:41:02;;;;;;;35.08;26.38;;;8.20;99.90;;;;;;5029434;28;20045;-88
2021/12/16 00:46:12;;;;;;;39.15;26.90;;;8.20;99.90;;;;;;5052974;28;20105;-88
2021/12/16 00:54:12;;;;;;;38.08;26.52;;;8.20;99.90;;;;;;5064277;28;20045;-89
2021/12/16 00:56:40;;;;;;;39.58;27.77;;;8.20;99.90;;;;;;5036639;28;20044;-88
2021/12/16 00:59:09;;;;;;;40.10;27.08;;;8.20;99.90;;;;;;5045431;28;20052;-88
2021/12/16 01:01:55;;;;;;;40.15;27.13;;;8.20;99.90;;;;;;5037490;28;20040;-88
2021/12/16 01:04:52;;;;;;;40.85;29.10;;;8.20;99.90;;;;;;5042719;28;20124;-88
2021/12/16 01:07:45;;;;;;;43.80;27.92;;;8.30;99.90;;;;;;5072669;28;20110;-88
2021/12/16 01:38:08;;;;;;;44.20;30.70;;;8.20;99.90;;;;;;5058067;28;20087;-89
2021/12/16 01:51:20;;;;;;;43.40;30.35;;;8.20;99.90;;;;;;5049970;28;20451;-89
2021/12/16 01:56:37;;;;;;;46.35;30.88;;;8.20;99.90;;;;;;5032557;28;20062;-89
2021/12/16 01:59:05;;;;;;;40.05;30.90;;;8.20;99.90;;;;;;5037691;28;20436;-89
2021/12/16 02:01:34;;;;;;;46.72;31.40;;;8.20;99.90;;;;;;5036888;28;20079;-88
2021/12/16 02:04:13;;;;;;;47.10;31.83;;;8.20;99.90;;;;;;5052161;28;20043;-89
2021/12/16 02:09:31;;;;;;;45.83;30.27;;;8.10;99.90;;;;;;5059767;28;20143;-88
2021/12/16 02:34:15;;;;;;;52.72;33.50;;;7.90;99.90;;;;;;5049098;28;20331;-90
2021/12/16 02:36:45;;;;;;;50.92;33.03;;;7.80;99.90;;;;;;5054954;28;20060;-89
2021/12/16 02:39:19;;;;;;;51.65;32.38;;;7.80;99.90;;;;;;5045302;28;20075;-89
2021/12/16 02:41:48;;;;;;;52.58;33.10;;;7.80;99.90;;;;;;5050641;28;20075;-89
2021/12/16 02:49:44;;;;;;;52.93;32.97;;;7.80;99.90;;;;;;5071370;28;20048;-90
2021/12/16 02:52:10;;;;;;;54.40;34.50;;;7.80;99.90;;;;;;5057618;28;20286;-89
2021/12/16 02:54:36;;;;;;;53.20;32.25;;;7.70;99.90;;;;;;5055602;28;20078;-89
2021/12/16 02:57:03;;;;;;;47.58;29.48;;;7.70;99.90;;;;;;5062382;28;20092;-89
2021/12/16 02:59:30;;;;;;;52.35;34.20;;;7.70;99.90;;;;;;5047192;28;20044;-89
2021/12/16 03:02:05;;;;;;;49.92;31.35;;;7.70;99.90;;;;;;5051146;28;20037;-90
2021/12/16 03:04:31;;;;;;;51.67;31.77;;;7.70;99.90;;;;;;5046629;28;20028;-88
2021/12/16 03:06:59;;;;;;;49.67;32.78;;;7.70;99.90;;;;;;5053864;28;20074;-89
2021/12/16 03:15:28;;;;;;;58.67;33.03;;;7.70;99.90;;;;;;5010522;28;20434;-88
2021/12/16 03:18:09;;;;;;;47.70;32.30;;;7.70;99.90;;;;;;4993875;28;20057;-90
2021/12/16 03:38:36;;;;;;;52.33;35.15;;;7.70;99.90;;;;;;5013848;28;20411;-88
2021/12/16 03:41:04;;;;;;;47.05;31.75;;;7.80;99.90;;;;;;4994460;28;20081;-88
2021/12/16 03:43:31;;;;;;;46.78;30.63;;;7.80;99.90;;;;;;5003237;28;20686;-88
2021/12/16 03:48:59;;;;;;;50.85;33.42;;;7.80;99.90;;;;;;5007452;28;20454;-89
2021/12/16 03:51:39;;;;;;;50.75;32.38;;;7.80;99.90;;;;;;5045023;28;20106;-90
2021/12/16 03:54:10;;;;;;;48.55;32.85;;;7.80;99.90;;;;;;5053934;28;20068;-87
2021/12/16 03:56:37;;;;;;;50.92;34.63;;;7.80;99.90;;;;;;5075157;28;20062;-89
2021/12/16 03:59:04;;;;;;;56.78;34.78;;;7.80;99.90;;;;;;5036949;28;20032;-87
2021/12/16 04:01:30;;;;;;;50.28;35.38;;;7.80;99.90;;;;;;5049881;28;20087;-89
2021/12/16 04:03:57;;;;;;;52.10;32.88;;;7.80;99.90;;;;;;5063282;28;20048;-88
2021/12/16 04:06:24;;;;;;;55.65;34.53;;;7.80;99.90;;;;;;5034176;28;20041;-89
2021/12/16 04:08:52;;;;;;;49.17;33.40;;;7.80;99.90;;;;;;5055269;28;20032;-89
2021/12/16 04:11:23;;;;;;;51.45;32.17;;;7.80;99.90;;;;;;5050993;28;20413;-89
2021/12/16 04:13:54;;;;;;;52.42;33.47;;;7.80;99.90;;;;;;5048653;28;20033;-88
2021/12/16 04:16:36;;;;;;;52.15;31.13;;;7.70;99.90;;;;;;5037019;28;20094;-89
2021/12/16 04:19:09;;;;;;;54.55;33.25;;;7.70;99.90;;;;;;5055351;28;20044;-89
2021/12/16 04:21:38;;;;;;;61.67;35.10;;;7.70;99.90;;;;;;5036955;28;20054;-89
2021/12/16 04:24:04;;;;;;;56.72;36.53;;;7.70;99.90;;;;;;5063257;28;20089;-88
2021/12/16 04:26:31;;;;;;;58.42;34.78;;;7.70;99.90;;;;;;5073270;28;20063;-89
2021/12/16 04:28:57;;;;;;;59.53;35.85;;;7.70;99.90;;;;;;5058735;28;20048;-89
2021/12/16 04:31:24;;;;;;;61.08;38.10;;;7.70;99.90;;;;;;5036938;28;20043;-88
2021/12/16 04:33:52;;;;;;;62.30;36.20;;;7.80;99.90;;;;;;5056806;28;20243;-90
2021/12/16 04:36:18;;;;;;;54.58;36.85;;;7.80;99.90;;;;;;5073335;28;20140;-88
2021/12/16 04:38:46;;;;;;;55.92;35.65;;;7.80;99.90;;;;;;5053696;28;20074;-88
2021/12/16 04:41:13;;;;;;;57.28;34.50;;;7.80;99.90;;;;;;5063788;28;20048;-88
2021/12/16 04:43:44;;;;;;;49.83;35.35;;;7.80;99.90;;;;;;5028296;28;20393;-89
2021/12/16 04:46:13;;;;;;;55.05;35.83;;;7.80;99.90;;;;;;5034221;28;20570;-90
2021/12/16 04:48:41;;;;;;;55.20;34.65;;;7.90;99.90;;;;;;5045676;28;20037;-89
2021/12/16 04:51:07;;;;;;;59.10;36.28;;;7.80;99.90;;;;;;5037731;28;20059;-88
2021/12/16 04:53:34;;;;;;;49.30;34.50;;;7.80;99.90;;;;;;5052772;28;20103;-88
2021/12/16 04:56:00;;;;;;;53.15;35.50;;;7.80;99.90;;;;;;5053005;28;20036;-90
2021/12/16 04:58:26;;;;;;;59.63;36.03;;;7.80;99.90;;;;;;5053172;28;20045;-88
2021/12/16 05:00:53;;;;;;;55.00;34.17;;;7.70;99.90;;;;;;5043386;28;20062;-88
2021/12/16 05:03:19;;;;;;;50.05;33.63;;;7.70;99.90;;;;;;5053178;28;20048;-89
2021/12/16 05:05:45;;;;;;;58.00;34.25;;;7.60;99.90;;;;;;5063308;28;20389;-89
2021/12/16 05:08:11;;;;;;;54.17;34.13;;;7.60;99.90;;;;;;5041022;28;20036;-90
2021/12/16 05:10:37;;;;;;;60.03;36.47;;;7.50;99.90;;;;;;5036360;28;20086;-89
2021/12/16 05:13:04;;;;;;;49.53;31.67;;;7.40;99.90;;;;;;5052533;28;20043;-89
2021/12/16 05:15:34;;;;;;;48.17;31.45;;;7.50;99.90;;;;;;5049488;28;20516;-88
2021/12/16 05:18:06;;;;;;;52.65;32.03;;;7.40;99.90;;;;;;5043032;28;20435;-89
2021/12/16 05:20:40;;;;;;;49.13;29.70;;;7.30;99.90;;;;;;5046088;28;20081;-89
2021/12/16 05:28:23;;;;;;;;;;;7.20;99.90;;;;;;5052245;28;20139;-89
2021/12/16 05:30:49;;;;;;;43.65;27.17;;;7.10;99.90;;;;;;5057379;28;19959;-89
2021/12/16 05:33:15;;;;;;;51.45;31.33;;;7.10;99.90;;;;;;5035841;28;20123;-89
2021/12/16 05:35:41;;;;;;;46.95;28.13;;;7.10;99.90;;;;;;5035879;28;20056;-88
2021/12/16 05:38:07;;;;;;;38.88;25.42;;;7.10;99.90;;;;;;5053255;28;20041;-88
2021/12/16 05:40:34;;;;;;;47.40;27.58;;;7.00;99.90;;;;;;5051458;28;20305;-88
2021/12/16 05:43:06;;;;;;;50.25;30.73;;;7.00;99.90;;;;;;5034993;28;20056;-89
2021/12/16 05:45:32;;;;;;;52.40;35.60;;;7.10;99.90;;;;;;5036023;28;20032;-88
2021/12/16 05:48:01;;;;;;;68.43;36.30;;;7.10;99.90;;;;;;5036061;28;20079;-89
2021/12/16 05:50:29;;;;;;;60.10;34.92;;;7.10;99.90;;;;;;5053916;28;20048;-89
2021/12/16 05:52:55;;;;;;;52.22;32.42;;;7.20;99.90;;;;;;5046304;28;20048;-89
2021/12/16 05:55:21;;;;;;;56.83;34.95;;;7.30;99.90;;;;;;5046696;28;20048;-89
2021/12/16 05:57:47;;;;;;;57.17;35.10;;;7.30;99.90;;;;;;5034985;28;20078;-89
2021/12/16 06:00:20;;;;;;;53.30;32.33;;;7.40;99.90;;;;;;5055260;28;20036;-88
2021/12/16 06:02:46;;;;;;;47.75;30.40;;;7.40;99.90;;;;;;5036079;28;20044;-89
2021/12/16 06:05:12;;;;;;;50.95;33.50;;;7.40;99.90;;;;;;5060503;28;20047;-88
2021/12/16 06:07:38;;;;;;;57.83;34.33;;;7.50;99.90;;;;;;5055744;28;20044;-88
2021/12/16 06:10:08;;;;;;;54.10;34.40;;;7.50;99.90;;;;;;5061972;28;20039;-88
2021/12/16 06:12:33;;;;;;;52.47;34.05;;;7.50;99.90;;;;;;5063913;28;20076;-89
2021/12/16 06:15:33;;;;;;;53.47;34.10;;;7.60;99.90;;;;;;5042339;28;20040;-89
2021/12/16 06:28:48;;;;;;;67.47;37.58;;;7.70;99.90;;;;;;5061807;28;20040;-90
2021/12/16 06:31:14;;;;;;;66.22;36.67;;;7.70;99.90;;;;;;5042393;28;20115;-90
2021/12/16 06:33:40;;;;;;;68.63;39.97;;;7.70;99.90;;;;;;5063650;28;20044;-90
2021/12/16 06:36:06;;;;;;;65.35;39.35;;;7.70;99.90;;;;;;5044256;28;20508;-91
2021/12/16 06:38:31;;;;;;;72.90;42.13;;;7.80;99.90;;;;;;5045838;28;20119;-91
2021/12/16 06:40:57;;;;;;;58.67;37.97;;;7.80;99.90;;;;;;5042347;28;20549;-91
2021/12/16 06:43:24;;;;;;;64.57;39.28;;;7.80;99.90;;;;;;5061753;28;20040;-89
2021/12/16 06:45:52;;;;;;;64.38;38.72;;;7.80;99.90;;;;;;5064270;28;20110;-89
2021/12/16 06:48:24;;;;;;;55.78;35.67;;;7.80;99.90;;;;;;5056460;28;20040;-90
2021/12/16 06:50:55;;;;;;;59.13;36.53;;;7.90;99.90;;;;;;5061646;28;20040;-90
2021/12/16 06:53:48;;;;;;;;;;;7.80;99.90;;;;;;5056451;28;20291;-89
2021/12/16 06:56:14;;;;;;;50.22;32.10;;;7.80;99.90;;;;;;5046425;28;19926;-89
2021/12/16 07:01:14;;;;;;;53.28;35.22;;;7.80;99.90;;;;;;5071936;28;20143;-89
2021/12/16 07:03:47;;;;;;;51.35;34.58;;;7.90;99.90;;;;;;5060164;28;20036;-88
2021/12/16 07:06:18;;;;;;;50.72;34.83;;;7.90;99.90;;;;;;5063340;28;20115;-91
2021/12/16 07:08:45;;;;;;;;;;;7.90;99.90;;;;;;5035006;28;20093;-91
2021/12/16 07:11:11;;;;;;;58.42;35.10;;;7.90;99.90;;;;;;5043580;28;19927;-90
2021/12/16 07:13:41;;;;;;;55.08;34.58;;;7.90;99.90;;;;;;5053277;28;20049;-90
2021/12/16 07:16:11;;;;;;;64.78;38.60;;;7.90;99.90;;;;;;5055714;28;20135;-89
2021/12/16 07:18:36;;;;;;;61.45;35.65;;;7.90;99.90;;;;;;5067110;28;20044;-88
2021/12/16 07:21:04;;;;;;;56.00;34.72;;;7.90;99.90;;;;;;5047224;28;20044;-89
2021/12/16 07:23:30;;;;;;;51.03;33.88;;;7.90;99.90;;;;;;5054161;28;20041;-88
2021/12/16 07:25:58;;;;;;;53.97;34.95;;;7.90;99.90;;;;;;5061242;28;20040;-89
2021/12/16 07:28:24;;;;;;;60.00;35.58;;;7.80;99.90;;;;;;5074925;28;20126;-90
2021/12/16 07:30:49;;;;;;;63.20;38.22;;;7.90;99.90;;;;;;5054842;28;20048;-88
2021/12/16 07:33:16;;;;;;;54.17;34.15;;;7.80;99.90;;;;;;5057683;28;20041;-91
2021/12/16 07:35:44;;;;;;;52.75;33.03;;;7.80;99.90;;;;;;5039876;28;20072;-88
2021/12/16 07:38:10;;;;;;;56.15;35.20;;;7.70;99.90;;;;;;5035196;28;20052;-88
2021/12/16 07:40:38;;;;;;;54.38;33.83;;;7.70;99.90;;;;;;5054268;28;20044;-91
2021/12/16 07:45:38;;;;;;;48.92;32.47;;;7.60;99.90;;;;;;5056108;28;20482;-89
2021/12/16 07:48:05;;;;;;;57.33;32.20;;;7.60;99.90;;;;;;5055612;28;20142;-90
2021/12/16 07:50:31;;;;;;;71.50;37.15;;;7.50;99.90;;;;;;5036959;28;20244;-91
2021/12/16 07:52:57;;;;;;;66.90;36.90;;;7.50;99.90;;;;;;5036926;28;20496;-89
2021/12/16 07:55:23;;;;;;;77.85;37.63;;;7.50;99.90;;;;;;5060837;28;20051;-91
2021/12/16 07:57:49;;;;;;;68.93;38.58;;;7.50;99.90;;;;;;5038789;28;20070;-88
2021/12/16 08:00:24;;;;;;;84.88;40.42;;;7.50;99.90;;;;;;5054706;28;20076;-87
2021/12/16 08:02:50;;;;;;;90.70;40.80;;;7.50;99.90;;;;;;5060157;28;20052;-88
2021/12/16 08:05:17;;;;;;;86.18;42.67;;;7.50;99.90;;;;;;5048165;28;20045;-88
2021/12/16 08:07:43;;;;;;;91.25;42.47;;;7.50;99.90;;;;;;5023676;28;20055;-90
2021/12/16 08:10:13;;;;;;;97.30;44.60;;;7.50;99.90;;;;;;5034110;28;20041;-89
2021/12/16 08:12:39;;;;;;;96.85;43.88;;;7.50;99.90;;;;;;5026035;28;20048;-87
2021/12/16 08:15:07;;;;;;;110.28;47.60;;;7.60;99.90;;;;;;5054318;28;20408;-89
2021/12/16 08:17:32;;;;;;;82.45;42.45;;;7.60;99.90;;;;;;5056812;28;20051;-88
2021/12/16 08:19:58;;;;;;;115.78;47.00;;;7.60;99.90;;;;;;5056708;28;20489;-89
2021/12/16 08:22:24;;;;;;;94.18;43.22;;;7.60;99.90;;;;;;5056607;28;20054;-87
2021/12/16 08:24:50;;;;;;;211.10;57.90;;;7.70;99.90;;;;;;5056992;28;20085;-88
2021/12/16 08:27:16;;;;;;;152.57;53.10;;;7.70;99.90;;;;;;5074008;28;20492;-88
2021/12/16 08:29:43;;;;;;;144.02;49.42;;;7.70;99.90;;;;;;5077231;28;20051;-89
2021/12/16 08:32:09;;;;;;;279.40;63.17;;;7.70;99.90;;;;;;5077997;28;20043;-89
2021/12/16 08:34:38;;;;;;;103.63;47.67;;;7.80;99.90;;;;;;5050484;28;20398;-89
2021/12/16 08:37:06;;;;;;;311.60;68.20;;;7.80;99.90;;;;;;5036409;28;20413;-87
2021/12/16 08:39:33;;;;;;;209.68;58.20;;;7.90;99.90;;;;;;5053141;28;20040;-89
2021/12/16 08:42:00;;;;;;;281.48;61.83;;;7.90;99.90;;;;;;5036780;28;20090;-88
2021/12/16 08:44:27;;;;;;;278.38;63.35;;;7.90;99.90;;;;;;5052949;28;20527;-87
2021/12/16 08:46:58;;;;;;;247.88;62.47;;;8.00;99.90;;;;;;5052446;28;20040;-87
2021/12/16 08:49:24;;;;;;;;;;;8.00;99.90;;;;;;5036586;28;20040;-87
2021/12/16 08:51:54;;;;;;;207.23;55.47;;;8.00;99.90;;;;;;5032317;28;19959;-88
2021/12/16 08:54:20;;;;;;;318.58;70.50;;;8.00;99.90;;;;;;5040030;28;20037;-86
2021/12/16 08:56:47;;;;;;;229.27;57.92;;;8.00;99.90;;;;;;5034692;28;20052;-87
2021/12/16 08:59:13;;;;;;;105.05;45.15;;;8.10;99.90;;;;;;5027629;28;20040;-88
2021/12/16 09:01:44;;;;;;;89.93;43.42;;;8.10;99.90;;;;;;5069498;28;20463;-88
2021/12/16 09:04:10;;;;;;;215.37;56.23;;;8.10;99.90;;;;;;5038595;28;20450;-88
2021/12/16 09:06:36;;;;;;;111.50;44.97;;;8.10;99.90;;;;;;5045088;28;20075;-88
2021/12/16 09:09:05;;;;;;;136.80;49.80;;;8.20;99.90;;;;;;5053479;28;20123;-89
2021/12/16 09:11:36;;;;;;;228.75;57.72;;;8.20;99.90;;;;;;5055205;28;20097;-89
2021/12/16 09:14:02;;;;;;;206.23;53.50;;;8.20;99.90;;;;;;5053441;28;20093;-88
2021/12/16 09:16:31;;;;;;;131.05;46.15;;;8.20;99.90;;;;;;5055182;28;20476;-89
2021/12/16 09:18:57;;;;;;;76.07;39.00;;;8.30;99.90;;;;;;5047944;28;20048;-89
2021/12/16 09:21:27;;;;;;;146.55;47.78;;;8.30;99.90;;;;;;5036426;28;20044;-90
2021/12/16 09:23:54;;;;;;;78.13;39.70;;;8.30;99.90;;;;;;5034673;28;20040;-90
2021/12/16 09:26:20;;;;;;;79.72;38.28;;;8.30;99.90;;;;;;5051609;28;20062;-89
2021/12/16 09:28:47;;;;;;;57.92;33.97;;;8.30;99.90;;;;;;5055307;28;20040;-91
2021/12/16 09:31:15;;;;;;;89.03;39.50;;;8.20;99.90;;;;;;5057297;28;20040;-90
2021/12/16 09:33:50;;;;;;;81.68;37.42;;;8.30;99.90;;;;;;5053282;28;20044;-89
2021/12/16 09:36:18;;;;;;;86.22;37.50;;;8.20;99.90;;;;;;5055182;28;20063;-89
2021/12/16 09:38:45;;;;;;;80.80;38.05;;;8.20;99.90;;;;;;5052501;28;20070;-89
2021/12/16 09:41:11;;;;;;;76.32;37.28;;;8.20;99.90;;;;;;5052555;28;20037;-88
2021/12/16 09:43:42;;;;;;;69.03;34.17;;;8.30;99.90;;;;;;5036434;28;20067;-89
2021/12/16 09:46:11;;;;;;;;;;;8.30;99.90;;;;;;5052999;28;20045;-90
2021/12/16 09:48:38;;;;;;;55.42;31.00;;;8.20;99.90;;;;;;5051962;28;19926;-90
2021/12/16 09:51:07;;;;;;;49.40;29.17;;;8.20;99.90;;;;;;5072096;28;20043;-89
2021/12/16 09:53:34;;;;;;;50.78;31.75;;;8.20;99.90;;;;;;5058104;28;20045;-90
2021/12/16 09:56:01;;;;;;;53.50;32.30;;;8.20;99.90;;;;;;5035700;28;20377;-91
2021/12/16 09:58:35;;;;;;;46.67;29.92;;;8.20;99.90;;;;;;5049144;28;20143;-92
2021/12/16 10:01:02;;;;;;;72.82;33.38;;;8.30;99.90;;;;;;5072239;28;20047;-89
2021/12/16 10:03:28;;;;;;;65.80;33.63;;;8.30;99.90;;;;;;5053826;28;20048;-91
2021/12/16 10:05:54;;;;;;;50.75;30.58;;;8.30;99.90;;;;;;5055509;28;20137;-91
2021/12/16 10:08:20;;;;;;;45.40;29.98;;;8.40;99.90;;;;;;5055472;28;20036;-91
2021/12/16 10:10:46;;;;;;;48.20;30.05;;;8.50;99.90;;;;;;5053855;28;20079;-91
2021/12/16 10:13:20;;;;;;;63.05;31.27;;;8.50;99.90;;;;;;5056008;28;20121;-90
2021/12/16 10:18:17;;;;;;;53.20;29.65;;;8.60;99.90;;;;;;5051905;28;20098;-89
2021/12/16 10:20:53;;;;;;;51.13;29.60;;;8.60;99.90;;;;;;5052452;28;20052;-90
2021/12/16 10:23:33;;;;;;;40.20;27.13;;;8.60;99.90;;;;;;5032795;28;20083;-89
2021/12/16 10:26:06;;;;;;;50.10;28.83;;;8.60;99.90;;;;;;5038803;28;20060;-90
2021/12/16 10:28:41;;;;;;;52.70;29.08;;;8.70;99.90;;;;;;5036159;28;20078;-89
2021/12/16 10:31:12;;;;;;;43.92;27.88;;;8.70;99.90;;;;;;5060313;28;20427;-89
2021/12/16 10:33:40;;;;;;;45.25;28.10;;;8.70;99.90;;;;;;5034992;28;20066;-91
2021/12/16 10:36:14;;;;;;;47.72;27.73;;;8.70;99.90;;;;;;5034429;28;20056;-89
2021/12/16 10:38:52;;;;;;;45.28;26.63;;;8.80;99.90;;;;;;5053183;28;20129;-89
2021/12/16 10:41:25;;;;;;;46.78;27.25;;;8.80;99.90;;;;;;5035800;28;20048;-91
2021/12/16 10:44:12;;;;;;;41.80;25.90;;;8.80;99.90;;;;;;5053584;28;20048;-89
2021/12/16 10:46:43;;;;;;;48.67;27.45;;;8.80;99.90;;;;;;5037372;28;20076;-90
2021/12/16 10:49:24;;;;;;;44.30;26.47;;;8.80;99.90;;;;;;5062935;28;20036;-87
2021/12/16 10:51:54;;;;;;;56.35;28.75;;;8.80;99.90;;;;;;5046923;28;20063;-88
2021/12/16 10:54:23;;;;;;;45.97;26.25;;;8.90;99.90;;;;;;5046159;28;20036;-91
2021/12/16 10:56:54;;;;;;;42.10;26.10;;;8.90;99.90;;;;;;5052397;28;20049;-90
2021/12/16 10:59:20;;;;;;;;;;;8.90;99.90;;;;;;5061907;28;20041;-88
2021/12/16 11:01:48;;;;;;;52.58;26.92;;;8.90;99.90;;;;;;5033692;28;20300;-90
2021/12/16 11:04:24;;;;;;;44.00;26.20;;;8.90;99.90;;;;;;5048058;28;20049;-89
2021/12/16 11:07:01;;;;;;;55.63;27.17;;;9.00;99.90;;;;;;5033455;28;20128;-88
2021/12/16 11:09:30;;;;;;;53.08;26.13;;;9.00;99.90;;;;;;5050390;28;20043;-88
2021/12/16 11:12:09;;;;;;;52.22;27.90;;;9.00;99.90;;;;;;5052602;28;20040;-88
2021/12/16 11:14:36;;;;;;;62.95;28.80;;;9.00;99.90;;;;;;5032954;28;20442;-88
2021/12/16 11:17:05;;;;;;;49.40;26.45;;;9.00;99.90;;;;;;5039576;28;20036;-89
2021/12/16 11:19:40;;;;;;;45.95;25.38;;;9.00;99.90;;;;;;5033827;28;20090;-89
2021/12/16 11:22:06;;;;;;;46.90;26.27;;;9.00;99.90;;;;;;5051154;28;20249;-89
2021/12/16 11:24:32;;;;;;;52.05;27.00;;;9.10;99.90;;;;;;5054796;28;20127;-89
2021/12/16 11:26:58;;;;;;;62.03;28.75;;;9.10;99.90;;;;;;5055670;28;20123;-88
2021/12/16 11:29:31;;;;;;;50.20;27.80;;;9.10;99.90;;;;;;5050538;28;20424;-89
2021/12/16 11:31:57;;;;;;;73.78;30.05;;;9.10;99.90;;;;;;5052341;28;20393;-91
2021/12/16 11:34:23;;;;;;;58.65;27.20;;;9.10;99.90;;;;;;5070697;28;20032;-89
2021/12/16 11:36:53;;;;;;;52.58;27.25;;;9.10;99.90;;;;;;5039430;28;20115;-89
2021/12/16 11:39:23;;;;;;;68.82;29.55;;;9.10;99.90;;;;;;5035905;28;20678;-90
2021/12/16 11:42:00;;;;;;;65.53;27.48;;;9.10;99.90;;;;;;5046023;28;20089;-89
2021/12/16 11:44:28;;;;;;;70.50;29.73;;;9.10;99.90;;;;;;5052823;28;20097;-89
2021/12/16 11:47:00;;;;;;;78.97;31.13;;;9.10;99.90;;;;;;5052443;28;20037;-89
2021/12/16 11:49:31;;;;;;;98.25;33.05;;;9.10;99.90;;;;;;5059647;28;20049;-89
2021/12/16 11:52:03;;;;;;;56.92;28.38;;;9.10;99.90;;;;;;5054069;28;20122;-88
2021/12/16 11:54:34;;;;;;;;;;;9.10;99.90;;;;;;5049212;28;20080;-89
2021/12/16 11:57:32;;;;;;;100.70;32.20;;;9.10;99.90;;;;;;5058140;28;20365;-90
2021/12/16 12:00:12;;;;;;;131.98;33.97;;;9.10;99.90;;;;;;5044539;28;20044;-90
2021/12/16 12:02:44;;;;;;;93.93;32.08;;;9.10;99.90;;;;;;5062004;28;20070;-90
2021/12/16 12:05:16;;;;;;;111.25;33.92;;;9.10;99.90;;;;;;5057691;28;20082;-88
2021/12/16 12:07:45;;;;;;;100.70;34.35;;;9.20;99.90;;;;;;5037106;28;20165;-89
2021/12/16 12:10:11;;;;;;;51.10;27.02;;;9.20;99.90;;;;;;5058244;28;20131;-90
2021/12/16 12:12:50;;;;;;;54.03;25.45;;;9.20;99.90;;;;;;5053692;28;20127;-90
2021/12/16 12:15:18;;;;;;;75.13;27.70;;;9.20;99.90;;;;;;5037019;28;20150;-89
2021/12/16 12:17:51;;;;;;;58.08;27.73;;;9.20;99.90;;;;;;5043222;28;20058;-89
2021/12/16 12:20:23;;;;;;;133.52;30.65;;;9.30;99.90;;;;;;5064875;28;20436;-89
2021/12/16 12:22:51;;;;;;;57.25;25.48;;;9.30;99.90;;;;;;5035694;28;20040;-89
2021/12/16 12:25:17;;;;;;;127.88;33.05;;;9.30;99.90;;;;;;5053664;28;20045;-89
2021/12/16 12:27:43;;;;;;;74.45;26.55;;;9.30;99.90;;;;;;5051855;28;20044;-88
2021/12/16 12:30:10;;;;;;;114.88;30.52;;;9.30;99.90;;;;;;5073539;28;20047;-89
2021/12/16 12:32:46;;;;;;;168.75;35.20;;;9.20;99.90;;;;;;5058739;28;20131;-90
2021/12/16 12:35:23;;;;;;;117.97;30.75;;;9.30;99.90;;;;;;5061862;28;20052;-89
2021/12/16 12:37:51;;;;;;;121.93;32.70;;;9.30;99.90;;;;;;5048454;28;20108;-89
2021/12/16 12:40:31;;;;;;;140.48;35.25;;;9.30;99.90;;;;;;5055796;28;20047;-88
2021/12/16 12:42:58;;;;;;;138.27;32.53;;;9.30;99.90;;;;;;5054654;28;20040;-91
2021/12/16 12:45:28;;;;;;;75.90;26.25;;;9.30;99.90;;;;;;5066409;28;20111;-89
2021/12/16 12:47:57;;;;;;;88.35;27.60;;;9.30;99.90;;;;;;5036444;28;20037;-89
2021/12/16 12:50:26;;;;;;;71.47;26.83;;;9.30;99.90;;;;;;5044714;28;20036;-89
2021/12/16 12:52:54;;;;;;;64.93;25.15;;;9.30;99.90;;;;;;5048042;28;20438;-89
2021/12/16 12:55:41;;;;;;;65.93;25.63;;;9.30;99.90;;;;;;5040986;28;20490;-91
2021/12/16 12:58:09;;;;;;;148.35;33.38;;;9.30;99.90;;;;;;5024927;28;20045;-91
2021/12/16 13:00:47;;;;;;;103.25;29.33;;;9.30;99.90;;;;;;5036902;28;20047;-92
2021/12/16 13:03:35;;;;;;;154.40;34.92;;;9.30;99.90;;;;;;5027723;28;20053;-91
2021/12/16 13:06:15;;;;;;;57.80;25.30;;;9.30;99.90;;;;;;5074460;28;20048;-92
2021/12/16 13:08:49;;;;;;;72.15;27.42;;;9.30;99.90;;;;;;5046781;28;20049;-91
2021/12/16 13:11:17;;;;;;;120.13;30.67;;;9.30;99.90;;;;;;5049262;28;20063;-91
2021/12/16 13:29:07;;;;;;;130.13;28.58;;;9.30;99.90;;;;;;5018205;28;20362;-88
2021/12/16 13:31:35;;;;;;;153.38;33.03;;;9.30;99.90;;;;;;5026039;28;20060;-90
2021/12/16 13:34:02;;;;;;;127.60;31.23;;;9.30;99.90;;;;;;5025007;28;20044;-89
2021/12/16 13:36:46;;;;;;;66.47;24.58;;;9.40;99.90;;;;;;5019348;28;20055;-88
2021/12/16 13:39:22;;;;;;;90.32;27.88;;;9.40;99.90;;;;;;5032086;28;20575;-89
2021/12/16 13:41:57;;;;;;;126.55;30.05;;;9.40;99.90;;;;;;5046769;28;20048;-91
2021/12/16 13:44:50;;;;;;;94.93;28.05;;;9.40;99.90;;;;;;5061762;28;20044;-91
2021/12/16 13:47:36;;;;;;;117.70;29.67;;;9.40;99.90;;;;;;5043142;28;20052;-91
2021/12/16 14:05:45;;;;;;;78.70;26.80;;;9.30;99.90;;;;;;5081682;28;20092;-91
2021/12/16 14:08:04;;;;;;;72.95;27.35;;;9.40;99.90;;;;;;5072007;28;20044;-91
2021/12/16 14:10:45;;;;;;;67.20;26.83;;;9.40;99.90;;;;;;5058352;28;20131;-91
2021/12/16 14:14:12;;;;;;;93.70;31.92;;;9.40;99.90;;;;;;5041284;28;20072;-90
2021/12/16 14:27:22;;;;;;;77.82;28.02;;;9.30;99.90;;;;;;5052927;28;20056;-89
2021/12/16 14:33:47;;;;;;;85.85;28.30;;;9.20;99.90;;;;;;5053208;28;20048;-90
2021/12/16 14:35:50;;;;;;;71.20;26.17;;;9.10;99.90;;;;;;5052601;28;20064;-91
2021/12/16 14:41:12;;;;;;;99.97;30.95;;;9.10;99.90;;;;;;5054649;28;20052;-92
2021/12/16 14:44:07;;;;;;;90.82;28.00;;;9.00;99.90;;;;;;5035897;28;20127;-91
2021/12/16 14:46:31;;;;;;;94.93;29.80;;;9.00;99.90;;;;;;5048677;28;20379;-90
2021/12/16 14:48:57;;;;;;;96.65;29.45;;;8.90;99.90;;;;;;5034035;28;20136;-90
2021/12/16 14:51:23;;;;;;;78.28;29.10;;;8.80;99.90;;;;;;5032381;28;20081;-91
2021/12/16 14:53:54;;;;;;;85.05;31.95;;;8.90;99.90;;;;;;5033287;28;20076;-90
2021/12/16 14:56:23;;;;;;;146.73;33.55;;;8.90;99.90;;;;;;5017551;28;20044;-91
2021/12/16 14:59:11;;;;;;;156.70;33.50;;;8.80;99.90;;;;;;5017151;28;20066;-91
2021/12/16 15:01:47;;;;;;;178.68;33.70;;;8.80;99.90;;;;;;5032714;28;20120;-90
2021/12/16 15:04:16;;;;;;;176.55;35.75;;;8.80;99.90;;;;;;5017595;28;20044;-91
2021/12/16 15:06:57;;;;;;;149.80;37.92;;;8.70;99.90;;;;;;5015904;28;20041;-91
2021/12/16 15:09:32;;;;;;;142.73;35.65;;;8.70;99.90;;;;;;5032218;28;20095;-92
2021/12/16 15:12:18;;;;;;;198.95;46.10;;;8.70;99.90;;;;;;5016011;28;20386;-92
2021/12/16 15:15:08;;;;;;;238.02;48.88;;;8.70;99.90;;;;;;5019446;28;20052;-91
2021/12/16 15:36:44;;;;;;;;;;;8.50;99.90;;;;;;5076180;28;20056;-90
2021/12/16 15:44:29;;;;;;;234.20;42.13;;;8.50;99.90;;;;;;5075689;28;20040;-89
2021/12/16 15:46:55;;;;;;;187.40;36.15;;;8.50;99.90;;;;;;5058917;28;20044;-90
2021/12/16 15:49:22;;;;;;;291.10;73.22;;;8.50;99.90;;;;;;5076389;28;20392;-90
2021/12/16 15:51:52;;;;;;;386.42;109.82;;;8.50;99.90;;;;;;5058451;28;20036;-90
2021/12/16 15:54:19;;;;;;;250.52;63.67;;;8.50;99.90;;;;;;5072350;28;20046;-89
2021/12/16 15:56:47;;;;;;;124.82;37.95;;;8.50;99.90;;;;;;5063610;28;20097;-87
2021/12/16 15:59:19;;;;;;;73.57;34.33;;;8.50;99.90;;;;;;5067317;28;20044;-87
2021/12/16 16:01:51;;;;;;;130.02;30.10;;;8.50;99.90;;;;;;5073163;28;20040;-88
2021/12/16 16:04:20;;;;;;;148.02;31.17;;;8.50;99.90;;;;;;5069429;28;20048;-88
2021/12/16 16:06:54;;;;;;;188.40;36.75;;;8.50;99.90;;;;;;5056993;28;20043;-89
2021/12/16 16:09:20;;;;;;;175.77;34.92;;;8.50;99.90;;;;;;5050705;28;20083;-89
2021/12/16 16:11:51;;;;;;;96.05;27.80;;;8.40;99.90;;;;;;5035013;28;20036;-89
2021/12/16 16:14:18;;;;;;;117.35;31.27;;;8.50;99.90;;;;;;5053102;28;20033;-88
2021/12/16 16:16:50;;;;;;;88.15;29.80;;;8.40;99.90;;;;;;5038354;28;20049;-89
2021/12/16 16:19:19;;;;;;;130.50;32.75;;;8.50;99.90;;;;;;5046050;28;20127;-90
2021/12/16 16:21:48;;;;;;;77.85;27.88;;;8.50;99.90;;;;;;5046910;28;20058;-89
2021/12/16 16:24:18;;;;;;;113.47;31.95;;;8.40;99.90;;;;;;5051004;28;20067;-90
2021/12/16 16:26:45;;;;;;;63.75;25.95;;;8.50;99.90;;;;;;5027772;28;20083;-90
2021/12/16 16:29:15;;;;;;;70.85;28.35;;;8.50;99.90;;;;;;5052462;28;20612;-89
2021/12/16 16:31:42;;;;;;;198.60;42.13;;;8.50;99.90;;;;;;5048438;28;20040;-89
2021/12/16 16:34:17;;;;;;;167.13;38.70;;;8.50;99.90;;;;;;5067103;28;20072;-90
2021/12/16 16:36:48;;;;;;;72.35;33.13;;;8.50;99.90;;;;;;5042227;28;20064;-89
2021/12/16 16:39:17;;;;;;;76.57;28.83;;;8.50;99.90;;;;;;5047061;28;20097;-89
2021/12/16 16:41:46;;;;;;;149.93;40.83;;;8.50;99.90;;;;;;5047892;28;20039;-90
2021/12/16 16:44:14;;;;;;;129.25;35.35;;;8.50;99.90;;;;;;5067662;28;20041;-89